METAR AND TAF INFORMATION
METAR FOR LPAZ
ADDS - METARS form results

(1918 UTC 26 April 2018)
Data provider http://aviationweather.gov/adds/metars/
 
METAR text: LPAZ 261900Z 29011KT 9999 BKN009 18/16 Q1028
Conditions at: LPAZ (SANTA MARIA ISLA, PT) observed 1900 UTC 26 April 2018
Temperature: 18.0°C (64°F)
Dewpoint: 16.0°C (61°F) [RH = 88%]
Pressure (altimeter): 30.35 inches Hg (1028.0 mb)
Winds: from the WNW (290 degrees) at 13 MPH (11 knots; 5.7 m/s)
Visibility: 6 or more miles (10+ km)
Ceiling: 900 feet AGL
Clouds: broken clouds at 900 feet AGL
Weather: no significant weather observed at this time

METAR text: LPAZ 261830Z 30011KT 9999 SCT009 19/16 Q1028
Conditions at: LPAZ (SANTA MARIA ISLA, PT) observed 1830 UTC 26 April 2018
Temperature: 19.0°C (66°F)
Dewpoint: 16.0°C (61°F) [RH = 83%]
Pressure (altimeter): 30.35 inches Hg (1028.0 mb)
Winds: from the WNW (300 degrees) at 13 MPH (11 knots; 5.7 m/s)
Visibility: 6 or more miles (10+ km)
Ceiling: at least 12,000 feet AGL
Clouds: scattered clouds at 900 feet AGL
Weather: no significant weather observed at this time

Forecast for: LPAZ (SANTA MARIA ISLA, PT)
Text: TAF LPAZ 261700Z 2618/2724 30010KT 9999 FEW020
Forecast period: 1800 UTC 26 April 2018 to 0200 UTC 27 April 2018
Forecast type: FROM: standard forecast or significant change
Winds: from the WNW (300 degrees) at 12 MPH (10 knots; 5.2 m/s)
Visibility: 6 or more miles (10+ km)
Clouds: few clouds at 2000 feet AGL
Weather: no significant weather forecast for this period
Forecast for: LPAZ (SANTA MARIA ISLA, PT)
Text: TAF LPAZ 261700Z 2618/2724 30010KT 9999 FEW020
Forecast period: 1800 UTC 26 April 2018 to 0200 UTC 27 April 2018
Forecast type: FROM: standard forecast or significant change
Winds: from the WNW (300 degrees) at 12 MPH (10 knots; 5.2 m/s)
Visibility: 6 or more miles (10+ km)
Clouds: few clouds at 2000 feet AGL
Weather: no significant weather forecast for this period
Forecast for: LPAZ (SANTA MARIA ISLA, PT)
Text: TAF LPAZ 261700Z 2618/2724 30010KT 9999 FEW020
Forecast period: 1800 UTC 26 April 2018 to 0200 UTC 27 April 2018
Forecast type: TEMPORARY: The following changes expected for less than half the time period
Ceiling: 3500 feet AGL
Clouds: few clouds at 1500 feet AGL
broken clouds at 3500 feet AGL
Weather: no significant weather forecast for this period
Forecast for: LPAZ (SANTA MARIA ISLA, PT)
Text: TAF LPAZ 261700Z 2618/2724 30010KT 9999 FEW020
Forecast period: 1800 UTC 26 April 2018 to 0200 UTC 27 April 2018
Forecast type: TEMPORARY: The following changes expected for less than half the time period
Ceiling: 3500 feet AGL
Clouds: few clouds at 1500 feet AGL
broken clouds at 3500 feet AGL
Weather: no significant weather forecast for this period
Forecast for: LPAZ (SANTA MARIA ISLA, PT)
Text: TAF LPAZ 261700Z 2618/2724 30010KT 9999 FEW020
Forecast period: 0200 to 1400 UTC 27 April 2018
Forecast type: BECOMING: Conditions expected to become as follows by 0500 UTC 27 April 2018
Winds: from the NNE (30 degrees) at 15 MPH (13 knots; 6.8 m/s)
Visibility: 6 or more miles (10+ km)
Clouds: scattered clouds at 600 feet AGL
scattered clouds at 1200 feet AGL
Weather: no significant weather forecast for this period
Forecast for: LPAZ (SANTA MARIA ISLA, PT)
Text: TAF LPAZ 261700Z 2618/2724 30010KT 9999 FEW020
Forecast period: 0200 to 1400 UTC 27 April 2018
Forecast type: BECOMING: Conditions expected to become as follows by 0500 UTC 27 April 2018
Winds: from the NNE (30 degrees) at 15 MPH (13 knots; 6.8 m/s)
Visibility: 6 or more miles (10+ km)
Clouds: scattered clouds at 600 feet AGL
scattered clouds at 1200 feet AGL
Weather: no significant weather forecast for this period
Forecast for: LPAZ (SANTA MARIA ISLA, PT)
Text: TAF LPAZ 261700Z 2618/2724 30010KT 9999 FEW020
Forecast period: 0500 to 1000 UTC 27 April 2018
Forecast type: TEMPORARY: The following changes expected for less than half the time period
Visibility: 1.86 miles (2.99 km)
Ceiling: 400 feet AGL
Clouds: scattered clouds at 200 feet AGL
broken clouds at 400 feet AGL
Weather: RA DZ  (rain, drizzle)
Forecast for: LPAZ (SANTA MARIA ISLA, PT)
Text: TAF LPAZ 261700Z 2618/2724 30010KT 9999 FEW020
Forecast period: 0500 to 1000 UTC 27 April 2018
Forecast type: TEMPORARY: The following changes expected for less than half the time period
Visibility: 1.86 miles (2.99 km)
Ceiling: 400 feet AGL
Clouds: scattered clouds at 200 feet AGL
broken clouds at 400 feet AGL
Weather: RA DZ  (rain, drizzle)
Forecast for: LPAZ (SANTA MARIA ISLA, PT)
Text: TAF LPAZ 261700Z 2618/2724 30010KT 9999 FEW020
Forecast period: 1400 UTC 27 April 2018 to 0000 UTC 28 April 2018
Forecast type: BECOMING: Conditions expected to become as follows by 1700 UTC 27 April 2018
Winds: from the N (360 degrees) at 9 MPH (8 knots; 4.2 m/s)
Visibility: 6 or more miles (10+ km)
Ceiling: 3000 feet AGL
Clouds: few clouds at 1800 feet AGL
broken clouds at 3000 feet AGL
Weather: no significant weather forecast for this period
Forecast for: LPAZ (SANTA MARIA ISLA, PT)
Text: TAF LPAZ 261700Z 2618/2724 30010KT 9999 FEW020
Forecast period: 1400 UTC 27 April 2018 to 0000 UTC 28 April 2018
Forecast type: BECOMING: Conditions expected to become as follows by 1700 UTC 27 April 2018
Winds: from the N (360 degrees) at 9 MPH (8 knots; 4.2 m/s)
Visibility: 6 or more miles (10+ km)
Ceiling: 3000 feet AGL
Clouds: few clouds at 1800 feet AGL
broken clouds at 3000 feet AGL
Weather: no significant weather forecast for this period

 AIRPORT MAP

 RUNWAY INFORMATION
Runway 04 Runway length 4345 ft Runway width 148 ft
Runway elevation 282 ft Runway displaced threshold 0 ft Runway heading 28
Runway 22 Runway length 4345 ft Runway width 148 ft
Runway elevation 299 ft Runway displaced threshold 0 ft Runway heading 208
Runway 15 Runway length 6004 ft Runway width 148 ft
Runway elevation 279 ft Runway displaced threshold 0 ft Runway heading 136
Runway 33 Runway length 6004 ft Runway width 148 ft
Runway elevation 299 ft Runway displaced threshold 0 ft Runway heading 316
Runway 18 Runway length 10000 ft Runway width 197 ft
Runway elevation 283 ft Runway displaced threshold 0 ft Runway heading 171
Runway 36 Runway length 10000 ft Runway width 197 ft
Runway elevation 283 ft Runway displaced threshold 0 ft Runway heading 351

 AIRPORT FREQUENCIES
Type A/G Name A/G Frequency 301.6 MHZ
Type A/G Name A/G Frequency 1130.9 MHZ
Type ACC Name CON Frequency 132.15 MHZ
Type APP Name APP Frequency 119 MHZ
Type RDO Name RDO Frequency 127.9 MHZ
Type TWR Name TWR Frequency 118.1 MHZ

 AIRPORT NEAR NAVIGATION AIDS
Type NDB Name Santa Maria Frequency 323 KHZ
Type VOR-DME Name Santa Maria Frequency 113700 KHZ



v2.6.1